Time;durP1;ratioP1;P1;durP2;ratioP2;P2;SDS_P1;SDS_P2;PMS_P1;PMS_P2;Temp;Humidity;BMP_temperature;BMP_pressure;BME280_temperature;BME280_humidity;BME280_pressure;Samples;Min_cycle;Max_cycle;Signal;HPM_P1;HPM_P2
2021/09/19 05:24:37;;;;;;;11.60;7.55;;;;;;;18.23;100.00;100851.16;6259987;22;20018;31
2021/09/19 05:27:22;;;;;;;9.88;8.05;;;;;;;18.37;100.00;100843.47;6243718;23;20076;-72
2021/09/19 05:30:09;;;;;;;9.25;7.60;;;;;;;17.99;100.00;100841.69;6248765;23;20059;-72
2021/09/19 05:32:54;;;;;;;9.25;7.20;;;;;;;18.48;100.00;100833.19;6248495;23;20019;-72
2021/09/19 05:35:40;;;;;;;10.18;7.10;;;;;;;18.51;100.00;100835.69;6248673;23;20015;-72
2021/09/19 05:38:26;;;;;;;8.25;7.10;;;;;;;18.57;100.00;100833.59;6248331;23;20001;-72
2021/09/19 05:41:12;;;;;;;9.27;7.00;;;;;;;18.54;100.00;100827.59;6248896;23;20437;-72
2021/09/19 05:43:58;;;;;;;7.53;6.72;;;;;;;18.71;100.00;100838.25;6227583;23;20028;-72
2021/09/19 10:11:16;;;;;;;5.85;2.33;;;;;;;26.57;40.38;100765.47;6301984;22;20043;-71
2021/09/19 10:14:02;;;;;;;14.65;2.72;;;;;;;26.88;40.01;100762.81;6307591;22;20054;-71
2021/09/19 10:16:48;;;;;;;11.60;2.80;;;;;;;27.15;40.15;100776.63;6310268;22;20031;-71
2021/09/19 10:19:34;;;;;;;4.60;2.40;;;;;;;26.97;39.35;100764.72;6307447;22;19999;-71
2021/09/19 10:22:30;;;;;;;9.00;2.60;;;;;;;27.02;39.02;100767.03;6306875;22;20011;-71
2021/09/19 10:25:32;;;;;;;3.38;2.72;;;;;;;27.09;38.98;100768.22;6307418;22;20007;-70
2021/09/19 10:28:24;;;;;;;5.30;2.95;;;;;;;27.17;38.96;100763.88;6288087;22;20003;-71
2021/09/19 14:04:20;;;;;;;6.28;3.45;;;;;;;26.99;37.40;100565.56;6298793;22;20019;-71
2021/09/19 14:07:06;;;;;;;4.07;3.13;;;;;;;27.11;37.57;100561.78;6309690;22;20314;-72
2021/09/19 14:09:52;;;;;;;6.07;3.13;;;;;;;27.29;37.21;100557.53;6287200;22;20007;-72
2021/09/19 14:12:38;;;;;;;5.28;3.38;;;;;;;27.43;37.04;100557.13;6287312;22;20007;-70
2021/09/19 14:15:24;;;;;;;5.18;2.90;;;;;;;27.12;36.70;100560.81;6309445;22;20015;-71
2021/09/19 14:18:11;;;;;;;4.95;2.90;;;;;;;27.04;36.07;100556.09;6308915;22;20022;-71
2021/09/19 14:20:57;;;;;;;6.55;3.13;;;;;;;27.03;36.72;100561.63;6309490;22;20003;-71
2021/09/19 14:23:42;;;;;;;7.63;5.82;;;;;;;27.08;36.88;100554.84;6286552;22;20014;-70
2021/09/19 14:26:28;;;;;;;13.68;3.42;;;;;;;26.80;36.56;100555.56;6307525;22;20074;-71
2021/09/19 14:29:14;;;;;;;5.97;2.80;;;;;;;27.04;36.49;100564.19;6287021;22;20003;-71
2021/09/19 14:32:00;;;;;;;11.68;2.67;;;;;;;26.96;36.66;100563.13;6309663;22;20003;-70
2021/09/19 14:34:46;;;;;;;7.80;2.72;;;;;;;26.89;36.15;100568.19;6308893;22;20076;-71
2021/09/19 14:37:37;;;;;;;5.57;2.90;;;;;;;26.96;36.15;100560.44;6306465;22;20086;-71
2021/09/19 14:40:24;;;;;;;8.13;3.25;;;;;;;27.00;36.00;100564.56;6307254;22;20003;-71
2021/09/19 14:43:10;;;;;;;4.68;3.25;;;;;;;26.83;36.09;100568.75;6287652;22;20022;-71
2021/09/19 14:45:56;;;;;;;6.40;3.55;;;;;;;26.83;36.46;100573.25;6311732;22;20017;-71
2021/09/19 14:48:42;;;;;;;7.53;3.40;;;;;;;27.02;36.85;100570.69;6319006;22;20006;-70
2021/09/19 14:51:28;;;;;;;5.55;3.33;;;;;;;26.98;37.09;100575.50;6317629;22;20006;-71
2021/09/19 14:54:14;;;;;;;7.38;3.60;;;;;;;26.89;36.75;100572.75;6317146;22;20017;-71
2021/09/19 14:57:00;;;;;;;4.97;3.50;;;;;;;26.89;36.42;100564.69;6338645;22;20402;-71
2021/09/19 14:59:45;;;;;;;3.90;3.30;;;;;;;26.79;36.48;100569.13;6316593;22;19998;-71
2021/09/19 15:02:31;;;;;;;5.60;3.78;;;;;;;26.70;36.66;100572.63;6319296;22;20003;-71
2021/09/19 18:43:09;;;;;;;12.38;8.77;;;;;;;23.55;57.91;100652.41;6286734;22;20015;-71
2021/09/19 18:45:55;;;;;;;12.90;9.40;;;;;;;23.31;59.26;100657.66;6285830;22;20015;-70
2021/09/19 18:48:41;;;;;;;17.77;10.60;;;;;;;23.47;58.35;100654.78;6307287;22;20003;-72
2021/09/19 18:51:27;;;;;;;16.05;11.80;;;;;;;23.66;57.80;100663.16;6307960;22;20013;-71
2021/09/19 18:54:13;;;;;;;18.52;11.75;;;;;;;23.82;56.54;100668.28;6307634;22;20068;-72
2021/09/19 18:56:59;;;;;;;17.25;11.45;;;;;;;23.73;55.85;100666.25;6307973;22;20007;-72
2021/09/19 18:59:44;;;;;;;15.98;11.68;;;;;;;23.43;56.36;100667.47;6286971;22;20004;-71
2021/09/19 19:02:30;;;;;;;15.63;11.13;;;;;;;23.44;57.13;100663.84;6310062;22;20352;-72
2021/09/19 19:05:16;;;;;;;16.10;11.38;;;;;;;23.48;57.23;100665.31;6306608;22;20015;-71
2021/09/19 19:08:02;;;;;;;17.10;11.27;;;;;;;23.71;56.91;100662.84;6306255;22;20014;-72
2021/09/19 19:10:48;;;;;;;13.88;11.40;;;;;;;23.60;56.86;100668.09;6309862;22;20456;-72
2021/09/19 19:13:34;;;;;;;17.67;11.65;;;;;;;23.42;57.78;100666.75;6306815;22;20003;-71
2021/09/19 19:16:20;;;;;;;16.30;12.05;;;;;;;23.51;56.94;100668.75;6307944;22;20011;-72
2021/09/19 19:19:07;;;;;;;17.38;13.00;;;;;;;23.26;57.95;100665.16;6307610;22;20282;-72
2021/09/19 19:21:52;;;;;;;19.80;13.10;;;;;;;23.17;58.63;100663.09;6284790;22;20017;-71
2021/09/19 19:43:09;;;;;;;16.38;10.65;;;;;;;23.23;58.19;100676.06;6299049;22;20030;-71
2021/09/19 19:45:55;;;;;;;14.40;9.50;;;;;;;22.92;59.21;100673.78;6306349;22;20007;-71
2021/09/19 19:48:41;;;;;;;13.35;9.57;;;;;;;22.54;60.31;100680.88;6308226;22;20003;-71
2021/09/19 19:51:27;;;;;;;17.13;12.95;;;;;;;23.12;58.54;100677.75;6286208;22;20007;-71
2021/09/19 19:54:13;;;;;;;16.35;10.27;;;;;;;22.60;60.24;100677.78;6307536;22;20007;-71
2021/09/19 19:56:58;;;;;;;17.33;9.98;;;;;;;22.30;62.03;100681.63;6305838;22;20321;-71
2021/09/19 19:59:44;;;;;;;13.23;10.27;;;;;;;22.57;60.92;100679.78;6286594;22;20003;-71
2021/09/19 20:02:30;;;;;;;16.08;10.23;;;;;;;22.24;62.45;100680.22;6306544;22;20014;-73
2021/09/19 20:05:17;;;;;;;19.77;10.23;;;;;;;22.53;61.86;100672.94;6306298;22;20398;-71
2021/09/19 20:08:03;;;;;;;14.15;10.40;;;;;;;22.46;61.12;100677.84;6306936;22;20007;-71
2021/09/19 20:10:49;;;;;;;14.20;10.32;;;;;;;22.29;61.99;100679.88;6307095;22;20011;-71
2021/09/19 20:13:35;;;;;;;14.07;10.50;;;;;;;22.34;62.29;100677.78;6306094;22;20015;-71
2021/09/19 20:16:21;;;;;;;16.10;10.10;;;;;;;21.99;64.85;100671.25;6285090;22;20007;-71
2021/09/19 20:19:07;;;;;;;17.33;9.85;;;;;;;22.20;64.45;100675.16;6308651;22;19999;-72
